Time;durP1;ratioP1;P1;durP2;ratioP2;P2;SDS_P1;SDS_P2;PMS_P1;PMS_P2;Temp;Humidity;BMP_temperature;BMP_pressure;BME280_temperature;BME280_humidity;BME280_pressure;Samples;Min_cycle;Max_cycle;Signal;HPM_P1;HPM_P2
2023/04/08 00:00:40;;;;;;;;;;;;;;;;;;6152196;23;19920;-83
2023/04/08 00:03:11;;;;;;;;;;;;;;;;;;6172347;23;19955;-84
2023/04/08 00:06:07;;;;;;;;;;;;;;;;;;6052561;23;19922;-83
2023/04/08 00:11:46;;;;;;;;;;;;;;;;;;6173247;23;19974;-83
2023/04/08 00:14:30;;;;;;;;;;;;;;;;;;6198372;23;19998;-83
2023/04/08 00:17:17;;;;;;;;;;;;;;;;;;6174885;23;19962;-84
2023/04/08 00:20:04;;;;;;;;;;;;;;;;;;6192291;23;20300;-84
2023/04/08 00:22:30;;;;;;;;;;;;;;;;;;6172406;23;19920;-84
2023/04/08 00:24:58;;;;;;;;;;;;;;;;;;6130229;23;19982;-83
2023/04/08 00:27:32;;;;;;;;;;;;;;;;;;6252701;22;19926;-83
2023/04/08 00:30:04;;;;;;;;;;;;;;;;;;6241661;22;20022;-83
2023/04/08 00:32:48;;;;;;;;;;;;;;;;;;6272099;22;19953;-84
2023/04/08 00:35:17;;;;;;;;;;;;;;;;;;6243890;22;19919;-83
2023/04/08 00:38:13;;;;;;;;;;;;;;;;;;6307562;22;20040;-84
2023/04/08 00:43:54;;;;;;;;;;;;;;;;;;6268459;22;19918;-83
2023/04/08 00:46:30;;;;;;;;;;;;;;;;;;6268937;22;20368;-84
2023/04/08 00:52:07;;;;;;;;;;;;;;;;;;6300576;22;19965;-83
2023/04/08 00:54:51;;;;;;;;;;;;;;;;;;6246928;22;19919;-83
2023/04/08 01:00:15;;;;;;;;;;;;;;;;;;6267385;22;19914;-83
2023/04/08 01:03:01;;;;;;;;;;;;;;;;;;;;;
2023/04/08 01:05:37;;;;;;;;;;;;;;;;;;;;;
2023/04/08 01:08:06;;;;;;;;;;;;;;;;;;6265571;22;19937;-83
2023/04/08 01:10:34;;;;;;;;;;;;;;;;;;6269292;22;19922;-83
2023/04/08 01:13:03;;;;;;;;;;;;;;;;;;6241692;22;19938;-83
2023/04/08 01:15:41;;;;;;;;;;;;;;;;;;6203188;23;19970;-83
2023/04/08 01:18:07;;;;;;;;;;;;;;;;;;6200160;23;20342;-84
2023/04/08 01:20:42;;;;;;;;;;;;;;;;;;6203213;23;20375;-84
2023/04/08 01:23:08;;;;;;;;;;;;;;;;;;6201295;23;20770;-83
2023/04/08 01:25:44;;;;;;;;;;;;;;;;;;;;;
2023/04/08 01:28:29;;;;;;;;;;;;;;;;;;;;;
2023/04/08 01:31:02;;;;;;;;;;;;;;;;;;6199775;23;19947;-83
2023/04/08 01:33:31;;;;;;;;;;;;;;;;;;6204129;23;19967;-83
2023/04/08 01:36:04;;;;;;;;;;;;;;;;;;6198819;23;19923;-84
2023/04/08 01:38:36;;;;;;;;;;;;;;;;;;6190297;23;19943;-84
2023/04/08 01:41:05;;;;;;;;;;;;;;;;;;6199442;23;20049;-83
2023/04/08 01:49:56;;;;;;;;;;;;;;;;;;6297712;22;19925;-84
2023/04/08 01:52:25;;;;;;;;;;;;;;;;;;6244477;22;19915;-84
2023/04/08 01:58:18;;;;;;;;;;;;;;;;;;6296623;22;19963;-84
2023/04/08 02:03:37;;;;;;;;;;;;;;;;;;;;;
2023/04/08 02:06:10;;;;;;;;;;;;;;;;;;6295624;22;19919;-83
2023/04/08 02:08:48;;;;;;;;;;;;;;;;;;6247293;22;19915;-84
2023/04/08 02:11:32;;;;;;;;;;;;;;;;;;6246879;22;19918;-84
2023/04/08 02:14:04;;;;;;;;;;;;;;;;;;6268429;22;19946;-84
2023/04/08 02:16:41;;;;;;;;;;;;;;;;;;6243381;22;20335;-84
2023/04/08 02:19:20;;;;;;;;;;;;;;;;;;6272032;22;19942;-83
2023/04/08 02:22:04;;;;;;;;;;;;;;;;;;6271105;22;19922;-83
2023/04/08 02:24:45;;;;;;;;;;;;;;;;;;6272571;22;20093;-84
2023/04/08 02:27:33;;;;;;;;;;;;;;;;;;6273856;22;19922;-83
2023/04/08 02:30:18;;;;;;;;;;;;;;;;;;6269814;22;19961;-83
2023/04/08 02:32:55;;;;;;;;;;;;;;;;;;6243272;22;19919;-83
2023/04/08 02:35:53;;;;;;;;;;;;;;;;;;6253312;22;19919;-84
2023/04/08 02:38:22;;;;;;;;;;;;;;;;;;6266900;22;19946;-84
2023/04/08 02:41:11;;;;;;;;;;;;;;;;;;6233737;22;20373;-83
2023/04/08 02:43:54;;;;;;;;;;;;;;;;;;6246059;22;19989;-83
2023/04/08 02:46:23;;;;;;;;;;;;;;;;;;6243850;22;19919;-84
2023/04/08 02:48:51;;;;;;;;;;;;;;;;;;6262891;22;19969;-83
2023/04/08 02:51:51;;;;;;;;;;;;;;;;;;6247099;22;20244;-84
2023/04/08 02:54:35;;;;;;;;;;;;;;;;;;6269963;22;19930;-83
2023/04/08 02:57:04;;;;;;;;;;;;;;;;;;6268938;22;19922;-83
2023/04/08 02:59:43;;;;;;;;;;;;;;;;;;6267907;22;20436;-83
2023/04/08 03:02:17;;;;;;;;;;;;;;;;;;6264052;22;19950;-83
2023/04/08 03:05:09;;;;;;;;;;;;;;;;;;6266889;22;20229;-83
2023/04/08 03:07:42;;;;;;;;;;;;;;;;;;6269620;22;19923;-83
2023/04/08 03:10:18;;;;;;;;;;;;;;;;;;;;;
2023/04/08 03:15:54;;;;;;;;;;;;;;;;;;6212194;23;19923;-84
2023/04/08 03:18:23;;;;;;;;;;;;;;;;;;6288834;22;19953;-83
2023/04/08 03:24:07;;;;;;;;;;;;;;;;;;6264514;22;20361;-83
2023/04/08 03:29:53;;;;;;;;;;;;;;;;;;6208475;23;19920;-83
2023/04/08 03:32:42;;;;;;;;;;;;;;;;;;6204656;22;19951;-83
2023/04/08 03:35:24;;;;;;;;;;;;;;;;;;6267706;22;19927;-84
2023/04/08 03:37:59;;;;;;;;;;;;;;;;;;6239319;22;19919;-83
2023/04/08 03:40:36;;;;;;;;;;;;;;;;;;6206792;23;19938;-84
2023/04/08 03:43:18;;;;;;;;;;;;;;;;;;;;;
2023/04/08 03:45:51;;;;;;;;;;;;;;;;;;6181431;23;19919;-84
2023/04/08 03:51:52;;;;;;;;;;;;;;;;;;;;;
2023/04/08 03:54:24;;;;;;;;;;;;;;;;;;6206679;23;20296;-84
2023/04/08 04:00:08;;;;;;;;;;;;;;;;;;6244197;23;19998;-83
2023/04/08 04:03:17;;;;;;;;;;;;;;;;;;;;;
2023/04/08 04:06:01;;;;;;;;;;;;;;;;;;6138955;23;19924;-84
2023/04/08 04:08:34;;;;;;;;;;;;;;;;;;6144851;23;20354;-84
2023/04/08 04:11:10;;;;;;;;;;;;;;;;;;;;;
2023/04/08 04:13:39;;;;;;;;;;;;;;;;;;6082557;23;20347;-84
2023/04/08 04:19:27;;;;;;;;;;;;;;;;;;6030005;23;20046;-84
2023/04/08 04:24:57;;;;;;;;;;;;;;;;;;6005851;23;20022;-83
2023/04/08 04:27:31;;;;;;;;;;;;;;;;;;5980260;23;19922;-83
2023/04/08 04:33:27;;;;;;;;;;;;;;;;;;6053751;23;20430;-84
2023/04/08 04:36:32;;;;;;;;;;;;;;;;;;6056483;23;19952;-83
2023/04/08 04:39:10;;;;;;;;;;;;;;;;;;6053969;23;20250;-84
2023/04/08 04:44:43;;;;;;;;;;;;;;;;;;6112825;23;19925;-84
2023/04/08 04:47:12;;;;;;;;;;;;;;;;;;6111440;23;19917;-83
2023/04/08 04:49:53;;;;;;;;;;;;;;;;;;6119352;23;19956;-83
2023/04/08 04:52:46;;;;;;;;;;;;;;;;;;6142748;23;19920;-83
2023/04/08 04:55:21;;;;;;;;;;;;;;;;;;6137640;23;19973;-84
2023/04/08 04:58:12;;;;;;;;;;;;;;;;;;6209402;23;19943;-84
2023/04/08 05:00:38;;;;;;;;;;;;;;;;;;6195783;23;19930;-83
2023/04/08 05:03:17;;;;;;;;;;;;;;;;;;6183360;23;19986;-84
2023/04/08 05:06:00;;;;;;;;;;;;;;;;;;6207862;23;19915;-83
2023/04/08 05:08:37;;;;;;;;;;;;;;;;;;6169005;23;20348;-83
2023/04/08 05:11:17;;;;;;;;;;;;;;;;;;6209087;22;19990;-83
2023/04/08 05:14:00;;;;;;;;;;;;;;;;;;6149084;23;20450;-84
2023/04/08 05:16:38;;;;;;;;;;;;;;;;;;6205491;22;19922;-83
2023/04/08 05:19:27;;;;;;;;;;;;;;;;;;6216167;22;19938;-84
2023/04/08 05:22:11;;;;;;;;;;;;;;;;;;6213326;22;20287;-84
2023/04/08 05:25:01;;;;;;;;;;;;;;;;;;6214926;22;20283;-84
2023/04/08 05:31:11;;;;;;;;;;;;;;;;;;6308742;22;20001;-84
2023/04/08 05:33:45;;;;;;;;;;;;;;;;;;6268990;22;19925;-84
2023/04/08 05:36:25;;;;;;;;;;;;;;;;;;6268540;22;19930;-83
2023/04/08 05:39:00;;;;;;;;;;;;;;;;;;6243033;22;20334;-84
2023/04/08 05:41:48;;;;;;;;;;;;;;;;;;6208491;23;19915;-84
2023/04/08 05:44:30;;;;;;;;;;;;;;;;;;6181829;23;19924;-84
2023/04/08 05:47:00;;;;;;;;;;;;;;;;;;6207194;23;19916;-84
2023/04/08 05:49:52;;;;;;;;;;;;;;;;;;6245217;23;19923;-84
2023/04/08 05:52:44;;;;;;;;;;;;;;;;;;6202772;23;19993;-83
2023/04/08 05:55:33;;;;;;;;;;;;;;;;;;6243400;23;19927;-83
2023/04/08 05:57:59;;;;;;;;;;;;;;;;;;6204113;23;19915;-83
2023/04/08 06:00:44;;;;;;;;;;;;;;;;;;6241445;23;19919;-83
2023/04/08 06:03:19;;;;;;;;;;;;;;;;;;6232455;23;19938;-83
2023/04/08 06:05:53;;;;;;;;;;;;;;;;;;6208069;23;20084;-84
2023/04/08 06:08:38;;;;;;;;;;;;;;;;;;;;;
2023/04/08 06:11:32;;;;;;;;;;;;;;;;;;;;;
2023/04/08 06:16:59;;;;;;;;;;;;;;;;;;6229820;23;19929;-83
2023/04/08 06:19:40;;;;;;;;;;;;;;;;;;6180643;23;20009;-84
2023/04/08 06:22:06;;;;;;;;;;;;;;;;;;6226422;23;20364;-83
2023/04/08 06:24:46;;;;;;;;;;;;;;;;;;6146920;23;19916;-84
2023/04/08 06:27:32;;;;;;;;;;;;;;;;;;6147350;23;19958;-84
2023/04/08 06:30:04;;;;;;;;;;;;;;;;;;6144308;23;19975;-83
2023/04/08 06:32:30;;;;;;;;;;;;;;;;;;6112609;23;19921;-83
2023/04/08 06:35:01;;;;;;;;;;;;;;;;;;6086110;23;19920;-84
2023/04/08 06:40:22;;;;;;;;;;;;;;;;;;6082328;23;20148;-83
2023/04/08 06:42:48;;;;;;;;;;;;;;;;;;6087070;23;19921;-84
2023/04/08 06:45:23;;;;;;;;;;;;;;;;;;6088996;23;19969;-84
2023/04/08 06:48:00;;;;;;;;;;;;;;;;;;6087168;23;19961;-83
2023/04/08 06:50:29;;;;;;;;;;;;;;;;;;6087852;23;19925;-83
2023/04/08 06:55:52;;;;;;;;;;;;;;;;;;6149893;23;20305;-83
2023/04/08 06:58:21;;;;;;;;;;;;;;;;;;6112556;23;20404;-84
2023/04/08 07:03:49;;;;;;;;;;;;;;;;;;6090020;23;20045;-83
2023/04/08 07:06:30;;;;;;;;;;;;;;;;;;6113861;23;19920;-83
2023/04/08 07:09:04;;;;;;;;;;;;;;;;;;6110660;23;19928;-83
2023/04/08 07:14:41;;;;;;;;;;;;;;;;;;6146989;23;20392;-83
2023/04/08 07:19:59;;;;;;;;;;;;;;;;;;6144026;23;19928;-83
2023/04/08 07:22:27;;;;;;;;;;;;;;;;;;6136421;23;19927;-83
2023/04/08 07:25:04;;;;;;;;;;;;;;;;;;6121282;23;19925;-84
2023/04/08 07:27:32;;;;;;;;;;;;;;;;;;6110170;23;19999;-84
2023/04/08 07:30:10;;;;;;;;;;;;;;;;;;6179807;23;20823;-83
2023/04/08 07:32:42;;;;;;;;;;;;;;;;;;6202068;23;20300;-83
2023/04/08 07:35:08;;;;;;;;;;;;;;;;;;6199573;23;19920;-83
2023/04/08 07:37:53;;;;;;;;;;;;;;;;;;6200237;23;19923;-83
2023/04/08 07:40:19;;;;;;;;;;;;;;;;;;6209569;23;20309;-83
2023/04/08 07:42:59;;;;;;;;;;;;;;;;;;6200106;23;19946;-83
2023/04/08 07:45:40;;;;;;;;;;;;;;;;;;6177914;23;19943;-83
2023/04/08 07:48:11;;;;;;;;;;;;;;;;;;6202534;23;19919;-83
2023/04/08 07:50:53;;;;;;;;;;;;;;;;;;6214099;23;19959;-83
2023/04/08 07:53:30;;;;;;;;;;;;;;;;;;6220743;22;19993;-83
2023/04/08 07:55:56;;;;;;;;;;;;;;;;;;6263606;22;19923;-83
2023/04/08 07:58:42;;;;;;;;;;;;;;;;;;6237802;22;20406;-83
2023/04/08 08:01:29;;;;;;;;;;;;;;;;;;6265383;22;19926;-83
2023/04/08 08:04:06;;;;;;;;;;;;;;;;;;6234420;22;19919;-83
2023/04/08 08:06:34;;;;;;;;;;;;;;;;;;6265679;22;19919;-83
2023/04/08 08:09:01;;;;;;;;;;;;;;;;;;6236117;22;19948;-83
2023/04/08 08:11:32;;;;;;;;;;;;;;;;;;6237712;22;19919;-83
2023/04/08 08:14:01;;;;;;;;;;;;;;;;;;6259141;22;19994;-83
2023/04/08 08:16:32;;;;;;;;;;;;;;;;;;6239938;22;19926;-84
2023/04/08 08:21:58;;;;;;;;;;;;;;;;;;6254484;22;20401;-83
2023/04/08 08:24:39;;;;;;;;;;;;;;;;;;6268017;22;19919;-83
2023/04/08 08:27:05;;;;;;;;;;;;;;;;;;6264620;22;19915;-84
2023/04/08 08:29:39;;;;;;;;;;;;;;;;;;6260435;22;20332;-84
2023/04/08 08:35:06;;;;;;;;;;;;;;;;;;6186280;22;20057;-83
2023/04/08 08:37:38;;;;;;;;;;;;;;;;;;6265454;22;20437;-83
2023/04/08 08:40:09;;;;;;;;;;;;;;;;;;6260806;22;19994;-82
2023/04/08 08:42:35;;;;;;;;;;;;;;;;;;6243139;22;19915;-83
2023/04/08 08:45:14;;;;;;;;;;;;;;;;;;;;;
2023/04/08 08:47:46;;;;;;;;;;;;;;;;;;6266481;22;19973;-83
2023/04/08 08:53:44;;;;;;;;;;;;;;;;;;6198129;23;19923;-83
2023/04/08 08:56:25;;;;;;;;;;;;;;;;;;6175744;23;20018;-83
2023/04/08 08:58:51;;;;;;;;;;;;;;;;;;6151647;23;19924;-83
2023/04/08 09:01:42;;;;;;;;;;;;;;;;;;6214074;22;20290;-83
2023/04/08 09:07:10;;;;;;;;;;;;;;;;;;6235109;22;19926;-83
2023/04/08 09:09:41;;;;;;;;;;;;;;;;;;6266852;22;19969;-83
2023/04/08 09:12:07;;;;;;;;;;;;;;;;;;6266449;22;19926;-83
2023/04/08 09:14:39;;;;;;;;;;;;;;;;;;6265421;22;19919;-83
2023/04/08 09:17:08;;;;;;;;;;;;;;;;;;6172250;23;20246;-83
2023/04/08 09:19:44;;;;;;;;;;;;;;;;;;6149457;23;19942;-83
2023/04/08 09:22:22;;;;;;;;;;;;;;;;;;6148098;23;20337;-83
2023/04/08 09:25:17;;;;;;;;;;;;;;;;;;;;;
2023/04/08 09:27:50;;;;;;;;;;;;;;;;;;6155098;23;19950;-83
2023/04/08 09:30:22;;;;;;;;;;;;;;;;;;6176687;23;19926;-83
2023/04/08 09:35:51;;;;;;;;;;;;;;;;;;6171027;23;19924;-83
2023/04/08 09:41:48;;;;;;;;;;;;;;;;;;6201449;23;19919;-83
2023/04/08 09:44:23;;;;;;;;;;;;;;;;;;6178748;23;20438;-83
2023/04/08 09:46:58;;;;;;;;;;;;;;;;;;6198491;23;19958;-83
2023/04/08 09:49:34;;;;;;;;;;;;;;;;;;6264047;22;19922;-83
2023/04/08 09:52:02;;;;;;;;;;;;;;;;;;6264828;22;20348;-83
2023/04/08 09:54:36;;;;;;;;;;;;;;;;;;6225232;22;20002;-83
2023/04/08 09:57:05;;;;;;;;;;;;;;;;;;6265017;22;19927;-83
2023/04/08 09:59:34;;;;;;;;;;;;;;;;;;6237847;22;19942;-83
2023/04/08 10:02:08;;;;;;;;;;;;;;;;;;6238726;22;19919;-83
2023/04/08 10:04:37;;;;;;;;;;;;;;;;;;6263225;22;19926;-83
2023/04/08 10:07:06;;;;;;;;;;;;;;;;;;6238542;22;19919;-84
2023/04/08 10:09:58;;;;;;;;;;;;;;;;;;6240598;22;19923;-83
2023/04/08 10:12:42;;;;;;;;;;;;;;;;;;6182046;23;19920;-83
2023/04/08 10:15:08;;;;;;;;;;;;;;;;;;6203240;23;20328;-83
2023/04/08 10:17:42;;;;;;;;;;;;;;;;;;6172418;23;19924;-83
2023/04/08 10:20:27;;;;;;;;;;;;;;;;;;;;;
2023/04/08 10:22:56;;;;;;;;;;;;;;;;;;6174097;23;19919;-84
2023/04/08 10:25:30;;;;;;;;;;;;;;;;;;6148150;23;20279;-84
2023/04/08 10:28:04;;;;;;;;;;;;;;;;;;6150048;23;19920;-84
2023/04/08 10:31:11;;;;;;;;;;;;;;;;;;6148874;23;19963;-84
2023/04/08 10:33:49;;;;;;;;;;;;;;;;;;6143929;23;19920;-84
2023/04/08 10:36:24;;;;;;;;;;;;;;;;;;6154888;23;19959;-84
2023/04/08 10:38:50;;;;;;;;;;;;;;;;;;6172190;23;20027;-84
2023/04/08 10:41:21;;;;;;;;;;;;;;;;;;6147353;23;20027;-84
2023/04/08 10:43:53;;;;;;;;;;;;;;;;;;6147236;23;19920;-84
2023/04/08 10:46:20;;;;;;;;;;;;;;;;;;6178221;23;20008;-84
2023/04/08 10:48:46;;;;;;;;;;;;;;;;;;6176058;23;19920;-83
2023/04/08 10:51:12;;;;;;;;;;;;;;;;;;6173657;23;19926;-83
2023/04/08 10:53:40;;;;;;;;;;;;;;;;;;6176864;23;19930;-84
2023/04/08 10:56:11;;;;;;;;;;;;;;;;;;6232037;22;19919;-84
2023/04/08 10:58:37;;;;;;;;;;;;;;;;;;6239744;22;19919;-83
2023/04/08 11:01:04;;;;;;;;;;;;;;;;;;6237301;22;19920;-84
2023/04/08 11:03:30;;;;;;;;;;;;;;;;;;6239323;22;19990;-83
2023/04/08 11:05:56;;;;;;;;;;;;;;;;;;6233940;22;20338;-83
2023/04/08 11:08:22;;;;;;;;;;;;;;;;;;6268533;22;19927;-84
2023/04/08 11:10:48;;;;;;;;;;;;;;;;;;6236572;22;19926;-83
2023/04/08 11:13:14;;;;;;;;;;;;;;;;;;6235958;22;19915;-83
2023/04/08 11:15:40;;;;;;;;;;;;;;;;;;6240504;22;19923;-83
2023/04/08 11:18:07;;;;;;;;;;;;;;;;;;6236164;22;19915;-83
2023/04/08 11:20:39;;;;;;;;;;;;;;;;;;6242571;22;19915;-83
2023/04/08 11:23:05;;;;;;;;;;;;;;;;;;6236352;22;19919;-83
2023/04/08 11:25:31;;;;;;;;;;;;;;;;;;6240548;22;20328;-83
2023/04/08 11:27:57;;;;;;;;;;;;;;;;;;6236551;22;19915;-83
2023/04/08 11:30:23;;;;;;;;;;;;;;;;;;6240294;22;19981;-83
2023/04/08 11:32:49;;;;;;;;;;;;;;;;;;6238375;22;19923;-83
2023/04/08 11:35:15;;;;;;;;;;;;;;;;;;6240759;22;19915;-84
2023/04/08 11:37:41;;;;;;;;;;;;;;;;;;6242324;22;20393;-83
2023/04/08 11:40:07;;;;;;;;;;;;;;;;;;6236506;22;19919;-83
2023/04/08 11:42:33;;;;;;;;;;;;;;;;;;6240601;22;20328;-83
2023/04/08 11:44:59;;;;;;;;;;;;;;;;;;6235951;22;19919;-83
2023/04/08 11:47:34;;;;;;;;;;;;;;;;;;6243255;22;19919;-83
2023/04/08 11:50:00;;;;;;;;;;;;;;;;;;6236065;22;19961;-83
2023/04/08 11:52:26;;;;;;;;;;;;;;;;;;6264460;22;19915;-83
2023/04/08 11:54:52;;;;;;;;;;;;;;;;;;6236632;22;19915;-84
2023/04/08 11:57:18;;;;;;;;;;;;;;;;;;6234357;22;19930;-84
2023/04/08 11:59:44;;;;;;;;;;;;;;;;;;6238260;22;20457;-84
2023/04/08 12:02:10;;;;;;;;;;;;;;;;;;6238943;22;19947;-84
2023/04/08 12:04:36;;;;;;;;;;;;;;;;;;6239845;22;19919;-84
2023/04/08 12:07:03;;;;;;;;;;;;;;;;;;6235449;22;19915;-83
2023/04/08 12:09:29;;;;;;;;;;;;;;;;;;6238693;22;20188;-84
2023/04/08 12:11:56;;;;;;;;;;;;;;;;;;6235918;22;19926;-84
2023/04/08 12:14:24;;;;;;;;;;;;;;;;;;6241905;22;19919;-84
2023/04/08 12:16:50;;;;;;;;;;;;;;;;;;6237204;22;20267;-84
2023/04/08 12:19:16;;;;;;;;;;;;;;;;;;6239887;22;20366;-84
2023/04/08 12:21:42;;;;;;;;;;;;;;;;;;6238181;22;19923;-83
2023/04/08 12:24:08;;;;;;;;;;;;;;;;;;6234310;22;20914;-83
2023/04/08 12:26:34;;;;;;;;;;;;;;;;;;6264280;22;19927;-83
2023/04/08 12:29:00;;;;;;;;;;;;;;;;;;6239169;22;19915;-84
2023/04/08 12:31:27;;;;;;;;;;;;;;;;;;6267637;22;20411;-83
2023/04/08 12:33:54;;;;;;;;;;;;;;;;;;6265373;22;20291;-83
2023/04/08 12:36:20;;;;;;;;;;;;;;;;;;6235910;22;19969;-83
2023/04/08 12:38:46;;;;;;;;;;;;;;;;;;6235162;22;19919;-84
2023/04/08 12:41:12;;;;;;;;;;;;;;;;;;6238750;22;19994;-83
2023/04/08 12:43:38;;;;;;;;;;;;;;;;;;6238740;22;19923;-84
2023/04/08 12:46:04;;;;;;;;;;;;;;;;;;6263669;22;20229;-83
2023/04/08 12:48:33;;;;;;;;;;;;;;;;;;6239718;22;19942;-83
2023/04/08 12:51:00;;;;;;;;;;;;;;;;;;6237018;22;19919;-83
2023/04/08 12:53:27;;;;;;;;;;;;;;;;;;6238647;22;19919;-82
2023/04/08 12:55:56;;;;;;;;;;;;;;;;;;6264564;22;19919;-83
2023/04/08 12:58:22;;;;;;;;;;;;;;;;;;6265414;22;19919;-83
2023/04/08 13:00:48;;;;;;;;;;;;;;;;;;6237899;22;19921;-84
2023/04/08 13:03:16;;;;;;;;;;;;;;;;;;6239244;22;20371;-83
2023/04/08 13:05:42;;;;;;;;;;;;;;;;;;6240256;22;19922;-84
2023/04/08 13:08:08;;;;;;;;;;;;;;;;;;6237394;22;20386;-83
2023/04/08 13:10:34;;;;;;;;;;;;;;;;;;6238965;22;19969;-83
2023/04/08 13:13:00;;;;;;;;;;;;;;;;;;6262885;22;20058;-83
2023/04/08 13:15:26;;;;;;;;;;;;;;;;;;6238418;22;19919;-84
2023/04/08 13:17:53;;;;;;;;;;;;;;;;;;6237654;22;19923;-83
2023/04/08 13:20:19;;;;;;;;;;;;;;;;;;6261951;22;20240;-83
2023/04/08 13:22:45;;;;;;;;;;;;;;;;;;6265438;22;19935;-83
2023/04/08 13:25:11;;;;;;;;;;;;;;;;;;6235479;22;19923;-83
2023/04/08 13:27:37;;;;;;;;;;;;;;;;;;6235892;22;19990;-83
2023/04/08 13:33:13;;;;;;;;;;;;;;;;;;6247681;22;19919;-83
2023/04/08 13:48:07;;;;;;;;;;;;;;;;;;6064346;23;19973;-83
2023/04/08 13:50:33;;;;;;;;;;;;;;;;;;6082736;23;20275;-83
2023/04/08 13:52:59;;;;;;;;;;;;;;;;;;6111832;23;19956;-83
2023/04/08 13:55:25;;;;;;;;;;;;;;;;;;6065654;23;19928;-83
2023/04/08 13:57:51;;;;;;;;;;;;;;;;;;6111280;23;19999;-84
2023/04/08 14:00:17;;;;;;;;;;;;;;;;;;6116000;23;19916;-83
2023/04/08 14:02:43;;;;;;;;;;;;;;;;;;6067885;23;20290;-83
2023/04/08 14:05:09;;;;;;;;;;;;;;;;;;6088918;23;20022;-83
2023/04/08 14:07:35;;;;;;;;;;;;;;;;;;6141418;23;19968;-83
2023/04/08 14:10:01;;;;;;;;;;;;;;;;;;6118137;23;19921;-83
2023/04/08 14:12:27;;;;;;;;;;;;;;;;;;6128074;23;20355;-83
2023/04/08 14:14:53;;;;;;;;;;;;;;;;;;6158282;22;19920;-83
2023/04/08 14:17:19;;;;;;;;;;;;;;;;;;6239473;22;20340;-83
2023/04/08 14:19:45;;;;;;;;;;;;;;;;;;6239840;22;19920;-83
2023/04/08 14:22:11;;;;;;;;;;;;;;;;;;6238263;22;19926;-84
2023/04/08 14:24:37;;;;;;;;;;;;;;;;;;6265923;22;19919;-83
2023/04/08 14:27:03;;;;;;;;;;;;;;;;;;6235941;22;20233;-83
2023/04/08 14:29:29;;;;;;;;;;;;;;;;;;6238854;22;19919;-83
2023/04/08 14:31:55;;;;;;;;;;;;;;;;;;6236442;22;19923;-83
2023/04/08 14:34:22;;;;;;;;;;;;;;;;;;6238880;22;19922;-84
2023/04/08 14:36:48;;;;;;;;;;;;;;;;;;6236455;22;19927;-83
2023/04/08 14:39:14;;;;;;;;;;;;;;;;;;6236371;22;20344;-83
2023/04/08 14:41:40;;;;;;;;;;;;;;;;;;6239306;22;20415;-83
2023/04/08 14:44:06;;;;;;;;;;;;;;;;;;6237569;22;19927;-83
2023/04/08 14:46:32;;;;;;;;;;;;;;;;;;6238604;22;19919;-83
2023/04/08 14:48:59;;;;;;;;;;;;;;;;;;6237315;22;20248;-83
2023/04/08 14:51:25;;;;;;;;;;;;;;;;;;6239569;22;20327;-84
2023/04/08 14:53:51;;;;;;;;;;;;;;;;;;6237954;22;19922;-84
2023/04/08 14:56:17;;;;;;;;;;;;;;;;;;6239430;22;19973;-83
2023/04/08 14:58:43;;;;;;;;;;;;;;;;;;6239035;22;19915;-83
2023/04/08 15:01:10;;;;;;;;;;;;;;;;;;6236698;22;19994;-83
2023/04/08 15:03:36;;;;;;;;;;;;;;;;;;6239491;22;20364;-84
2023/04/08 15:06:02;;;;;;;;;;;;;;;;;;6262207;22;19943;-84
2023/04/08 15:08:28;;;;;;;;;;;;;;;;;;6239083;22;19953;-83
2023/04/08 15:10:54;;;;;;;;;;;;;;;;;;6238823;22;19941;-84
2023/04/08 15:13:20;;;;;;;;;;;;;;;;;;6236799;22;20458;-83
2023/04/08 15:15:46;;;;;;;;;;;;;;;;;;6238000;22;19923;-83
2023/04/08 15:18:12;;;;;;;;;;;;;;;;;;6235596;22;19968;-83
2023/04/08 15:20:38;;;;;;;;;;;;;;;;;;6237025;22;19919;-83
2023/04/08 15:23:04;;;;;;;;;;;;;;;;;;6236825;22;19919;-83
2023/04/08 15:25:32;;;;;;;;;;;;;;;;;;6266045;22;19988;-84
2023/04/08 15:27:58;;;;;;;;;;;;;;;;;;6264728;22;20295;-83
2023/04/08 15:30:24;;;;;;;;;;;;;;;;;;6265435;22;19961;-83
2023/04/08 15:32:50;;;;;;;;;;;;;;;;;;6236770;22;19941;-84
2023/04/08 15:35:16;;;;;;;;;;;;;;;;;;6264839;22;19998;-83
2023/04/08 15:37:42;;;;;;;;;;;;;;;;;;6239690;22;19957;-83
2023/04/08 15:40:08;;;;;;;;;;;;;;;;;;6235913;22;20730;-83
2023/04/08 15:42:34;;;;;;;;;;;;;;;;;;6268393;22;19919;-84
2023/04/08 15:45:00;;;;;;;;;;;;;;;;;;6234455;22;20411;-84
2023/04/08 15:47:27;;;;;;;;;;;;;;;;;;6239711;22;19927;-83
2023/04/08 15:49:54;;;;;;;;;;;;;;;;;;6237847;22;19915;-84
2023/04/08 15:52:20;;;;;;;;;;;;;;;;;;6240795;22;20106;-84
2023/04/08 15:54:52;;;;;;;;;;;;;;;;;;6242716;22;19919;-84
2023/04/08 15:57:36;;;;;;;;;;;;;;;;;;6241508;22;19928;-84
2023/04/08 16:00:08;;;;;;;;;;;;;;;;;;6239809;22;19919;-84
2023/04/08 16:02:34;;;;;;;;;;;;;;;;;;6241119;22;20319;-84
2023/04/08 16:05:02;;;;;;;;;;;;;;;;;;6240195;22;19990;-85
2023/04/08 16:07:36;;;;;;;;;;;;;;;;;;6241807;22;20248;-84
2023/04/08 16:10:05;;;;;;;;;;;;;;;;;;6238907;22;19986;-84
2023/04/08 16:12:55;;;;;;;;;;;;;;;;;;6242790;22;20014;-84
2023/04/08 16:15:30;;;;;;;;;;;;;;;;;;6217112;22;19964;-85
2023/04/08 16:18:05;;;;;;;;;;;;;;;;;;6237455;22;19920;-84
2023/04/08 16:20:42;;;;;;;;;;;;;;;;;;6242078;22;19916;-84
2023/04/08 16:23:19;;;;;;;;;;;;;;;;;;6207850;23;20300;-84
2023/04/08 16:25:50;;;;;;;;;;;;;;;;;;6184791;23;19920;-84
2023/04/08 16:28:21;;;;;;;;;;;;;;;;;;6183271;23;20253;-84
2023/04/08 16:30:50;;;;;;;;;;;;;;;;;;6180451;23;19924;-84
2023/04/08 16:33:22;;;;;;;;;;;;;;;;;;6183914;23;20014;-84
2023/04/08 16:35:57;;;;;;;;;;;;;;;;;;6183630;23;20045;-84
2023/04/08 16:38:28;;;;;;;;;;;;;;;;;;6184918;23;20252;-84
2023/04/08 16:41:03;;;;;;;;;;;;;;;;;;6204376;23;20006;-84
2023/04/08 16:43:40;;;;;;;;;;;;;;;;;;6184828;23;19927;-84
2023/04/08 16:46:06;;;;;;;;;;;;;;;;;;6231726;23;20345;-85
2023/04/08 16:48:37;;;;;;;;;;;;;;;;;;6116661;23;20417;-84
2023/04/08 16:51:04;;;;;;;;;;;;;;;;;;6090928;23;20343;-84
2023/04/08 16:53:30;;;;;;;;;;;;;;;;;;6102689;23;19920;-85
2023/04/08 16:56:01;;;;;;;;;;;;;;;;;;6146977;23;19928;-83
2023/04/08 16:58:27;;;;;;;;;;;;;;;;;;6147642;23;20408;-84
2023/04/08 17:01:02;;;;;;;;;;;;;;;;;;6144271;23;19920;-84
2023/04/08 17:03:47;;;;;;;;;;;;;;;;;;6150051;23;20246;-84
2023/04/08 17:06:36;;;;;;;;;;;;;;;;;;;;;
2023/04/08 17:09:02;;;;;;;;;;;;;;;;;;6148589;23;20050;-84
2023/04/08 17:11:34;;;;;;;;;;;;;;;;;;6151008;23;19999;-85
2023/04/08 17:14:02;;;;;;;;;;;;;;;;;;6147784;23;20014;-84
2023/04/08 17:16:34;;;;;;;;;;;;;;;;;;6150895;23;19921;-84
2023/04/08 17:19:03;;;;;;;;;;;;;;;;;;6149024;23;19916;-84
2023/04/08 17:24:26;;;;;;;;;;;;;;;;;;6144852;23;19917;-85
2023/04/08 17:26:58;;;;;;;;;;;;;;;;;;6229322;22;20316;-84
2023/04/08 17:29:27;;;;;;;;;;;;;;;;;;6245646;22;19926;-84
2023/04/08 17:34:48;;;;;;;;;;;;;;;;;;6236872;22;19926;-84
2023/04/08 17:37:17;;;;;;;;;;;;;;;;;;6239969;22;19920;-84
2023/04/08 17:39:55;;;;;;;;;;;;;;;;;;6256072;22;19915;-84
2023/04/08 17:42:22;;;;;;;;;;;;;;;;;;6240580;22;19919;-84
2023/04/08 17:45:06;;;;;;;;;;;;;;;;;;6239379;22;19922;-84
2023/04/08 17:47:38;;;;;;;;;;;;;;;;;;6270056;22;19915;-84
2023/04/08 17:50:13;;;;;;;;;;;;;;;;;;6238426;22;20423;-84
2023/04/08 17:52:46;;;;;;;;;;;;;;;;;;6242369;22;20014;-84
2023/04/08 17:55:24;;;;;;;;;;;;;;;;;;6242154;22;19941;-84
2023/04/08 17:57:59;;;;;;;;;;;;;;;;;;6241277;22;19946;-84
2023/04/08 18:00:43;;;;;;;;;;;;;;;;;;6241217;22;20000;-84
2023/04/08 18:03:21;;;;;;;;;;;;;;;;;;6233310;23;19994;-84
2023/04/08 18:05:59;;;;;;;;;;;;;;;;;;6202794;23;20586;-84
2023/04/08 18:11:31;;;;;;;;;;;;;;;;;;6210192;23;19915;-84
2023/04/08 18:14:08;;;;;;;;;;;;;;;;;;6207531;23;19986;-84
2023/04/08 18:17:04;;;;;;;;;;;;;;;;;;6191971;23;19920;-84
2023/04/08 18:19:48;;;;;;;;;;;;;;;;;;6220620;23;19923;-84
2023/04/08 18:22:21;;;;;;;;;;;;;;;;;;6210861;23;19916;-84
2023/04/08 18:24:50;;;;;;;;;;;;;;;;;;6229362;23;19920;-84
2023/04/08 18:27:44;;;;;;;;;;;;;;;;;;;;;
2023/04/08 18:30:26;;;;;;;;;;;;;;;;;;6235908;23;19997;-84
2023/04/08 18:33:15;;;;;;;;;;;;;;;;;;6242695;23;20391;-84
2023/04/08 18:36:12;;;;;;;;;;;;;;;;;;6242715;23;21603;-84
2023/04/08 18:38:47;;;;;;;;;;;;;;;;;;6211523;23;19969;-84
2023/04/08 18:41:22;;;;;;;;;;;;;;;;;;6235906;23;20291;-84
2023/04/08 18:43:59;;;;;;;;;;;;;;;;;;6209553;23;19915;-84
2023/04/08 18:46:34;;;;;;;;;;;;;;;;;;6235962;23;19926;-84
2023/04/08 18:49:42;;;;;;;;;;;;;;;;;;6182860;23;19923;-84
2023/04/08 18:51:58;;;;;;;;;;;;;;;;;;6202120;23;19954;-84
2023/04/08 18:54:42;;;;;;;;;;;;;;;;;;6214557;23;20383;-84
2023/04/08 18:57:11;;;;;;;;;;;;;;;;;;6207294;23;19929;-84
2023/04/08 18:59:40;;;;;;;;;;;;;;;;;;6210612;23;19955;-85
2023/04/08 19:02:09;;;;;;;;;;;;;;;;;;6206175;23;19923;-84
2023/04/08 19:04:50;;;;;;;;;;;;;;;;;;6209958;23;20007;-84
2023/04/08 19:07:31;;;;;;;;;;;;;;;;;;6211228;23;19923;-84
2023/04/08 19:10:02;;;;;;;;;;;;;;;;;;6208036;23;19920;-84
2023/04/08 19:12:46;;;;;;;;;;;;;;;;;;6214086;23;19965;-84
2023/04/08 19:15:27;;;;;;;;;;;;;;;;;;6213716;23;19926;-84
2023/04/08 19:20:54;;;;;;;;;;;;;;;;;;6230263;23;20336;-84
2023/04/08 19:26:48;;;;;;;;;;;;;;;;;;6198430;23;19927;-83
2023/04/08 19:29:18;;;;;;;;;;;;;;;;;;6217150;22;19919;-84
2023/04/08 19:31:48;;;;;;;;;;;;;;;;;;6267782;22;20346;-84
2023/04/08 19:34:30;;;;;;;;;;;;;;;;;;6242937;22;19926;-84
2023/04/08 19:37:06;;;;;;;;;;;;;;;;;;6238092;22;20333;-83
2023/04/08 19:39:40;;;;;;;;;;;;;;;;;;6204297;23;20355;-83
2023/04/08 19:42:30;;;;;;;;;;;;;;;;;;6207327;23;19919;-84